createdAt,value
2023-04-18T00:02:24.261Z,63.66
2023-04-18T00:04:52.764Z,63.64
2023-04-18T00:07:23.352Z,63.87
2023-04-18T00:09:51.793Z,63.62
2023-04-18T00:12:20.926Z,64.04
2023-04-18T00:14:50.351Z,63.75
2023-04-18T00:17:20.788Z,63.96
2023-04-18T00:19:50.271Z,63.90
2023-04-18T00:22:22.252Z,64.02
2023-04-18T00:24:53.171Z,64.13
2023-04-18T00:27:22.636Z,64.21
2023-04-18T00:29:51.069Z,64.00
2023-04-18T00:32:19.889Z,64.20
2023-04-18T00:34:48.677Z,63.87
2023-04-18T00:37:17.254Z,64.10
2023-04-18T00:39:46.713Z,64.16
2023-04-18T00:42:16.442Z,64.21
2023-04-18T00:44:44.767Z,63.81
2023-04-18T00:47:13.611Z,63.72
2023-04-18T00:49:41.993Z,64.15
2023-04-18T00:52:11.562Z,64.07
2023-04-18T00:54:40.641Z,64.02
2023-04-18T00:57:09.818Z,64.04
2023-04-18T00:59:39.868Z,63.90
2023-04-18T01:02:10.026Z,64.10
2023-04-18T01:04:38.597Z,64.20
2023-04-18T01:07:10.594Z,63.88
2023-04-18T01:09:39.320Z,64.24
2023-04-18T01:12:07.710Z,64.02
2023-04-18T01:14:36.797Z,64.08
2023-04-18T01:17:08.054Z,64.08
2023-04-18T01:19:36.804Z,64.16
2023-04-18T01:22:05.199Z,64.39
2023-04-18T01:24:36.520Z,64.18
2023-04-18T01:27:05.859Z,64.25
2023-04-18T01:29:36.752Z,64.07
2023-04-18T01:32:07.318Z,64.14
2023-04-18T01:34:36.113Z,64.12
2023-04-18T01:37:07.989Z,64.35
2023-04-18T01:39:37.726Z,64.30
2023-04-18T01:42:07.272Z,64.10
2023-04-18T01:44:35.708Z,64.32
2023-04-18T01:47:04.282Z,64.22
2023-04-18T01:49:34.376Z,64.40
2023-04-18T01:52:03.228Z,64.32
2023-04-18T01:54:31.598Z,64.41
2023-04-18T01:57:01.358Z,64.67
2023-04-18T01:59:30.679Z,64.58
2023-04-18T02:02:00.225Z,64.46
2023-04-18T02:04:28.814Z,64.66
2023-04-18T02:06:57.223Z,64.88
2023-04-18T02:09:26.639Z,64.53
2023-04-18T02:11:56.271Z,64.72
2023-04-18T02:14:28.112Z,64.77
2023-04-18T02:16:56.557Z,64.63
2023-04-18T02:19:25.714Z,64.89
2023-04-18T02:21:54.156Z,64.78
2023-04-18T02:24:23.003Z,65.11
2023-04-18T02:26:52.062Z,64.92
2023-04-18T02:29:20.968Z,65.17
2023-04-18T02:31:51.172Z,65.15
2023-04-18T02:34:19.607Z,65.17
2023-04-18T02:36:50.407Z,65.28
2023-04-18T02:39:18.789Z,65.18
2023-04-18T02:41:48.145Z,65.08
2023-04-18T02:44:17.423Z,65.23
2023-04-18T02:46:45.919Z,65.32
2023-04-18T02:49:17.131Z,65.40
2023-04-18T02:51:46.566Z,65.44
2023-04-18T02:54:15.800Z,65.43
2023-04-18T02:56:57.406Z,65.64
2023-04-18T02:59:53.867Z,65.96
2023-04-18T03:02:48.235Z,65.71
2023-04-18T03:05:40.618Z,65.63
2023-04-18T03:08:09.618Z,65.90
2023-04-18T03:10:39.969Z,65.76
2023-04-18T03:13:08.843Z,66.19
2023-04-18T03:15:38.848Z,66.30
2023-04-18T03:18:08.913Z,66.36
2023-04-18T03:20:42.489Z,66.49
2023-04-18T03:23:10.871Z,66.42
2023-04-18T03:25:40.746Z,66.49
2023-04-18T03:28:09.558Z,66.69
2023-04-18T03:30:38.547Z,66.81
2023-04-18T03:33:08.605Z,66.75
2023-04-18T03:35:38.114Z,66.77
2023-04-18T03:38:08.651Z,66.60
2023-04-18T03:40:40.148Z,66.63
2023-04-18T03:43:17.164Z,66.69
2023-04-18T03:45:47.292Z,66.92
2023-04-18T03:48:18.756Z,66.89
2023-04-18T03:50:48.655Z,66.96
2023-04-18T03:53:18.768Z,66.81
2023-04-18T03:55:49.105Z,66.87
2023-04-18T03:58:23.678Z,66.86
2023-04-18T04:00:54.483Z,67.01
2023-04-18T04:03:23.354Z,67.11
2023-04-18T04:05:52.104Z,67.07
2023-04-18T04:08:23.451Z,66.85
2023-04-18T04:10:52.229Z,67.02
2023-04-18T04:13:21.070Z,67.06
2023-04-18T04:15:50.308Z,67.35
2023-04-18T04:18:19.599Z,67.29
2023-04-18T04:20:49.807Z,67.21
2023-04-18T04:23:33.150Z,67.21
2023-04-18T04:26:04.690Z,67.18
2023-04-18T04:28:42.812Z,67.17
2023-04-18T04:31:13.016Z,67.34
2023-04-18T04:33:43.518Z,67.15
2023-04-18T04:36:19.503Z,67.38
2023-04-18T04:38:54.721Z,67.48
2023-04-18T04:41:53.490Z,67.22
2023-04-18T04:44:26.127Z,67.51
2023-04-18T04:46:56.044Z,67.17
2023-04-18T04:49:29.957Z,67.46
2023-04-18T04:52:01.322Z,67.34
2023-04-18T04:54:31.876Z,67.46
2023-04-18T04:57:01.954Z,67.69
2023-04-18T04:59:30.817Z,67.53
2023-04-18T05:01:59.258Z,67.48
2023-04-18T05:04:29.472Z,67.76
2023-04-18T05:06:58.558Z,67.80
2023-04-18T05:09:27.942Z,68.14
2023-04-18T05:11:57.898Z,68.19
2023-04-18T05:14:26.388Z,68.33
2023-04-18T05:16:56.873Z,68.35
2023-04-18T05:19:25.283Z,68.58
2023-04-18T05:21:54.532Z,68.55
2023-04-18T05:24:22.892Z,68.48
2023-04-18T05:26:52.133Z,68.47
2023-04-18T05:29:22.324Z,68.45
2023-04-18T05:31:51.941Z,68.54
2023-04-18T05:34:20.956Z,68.46
2023-04-18T05:36:49.498Z,68.64
2023-04-18T05:39:18.936Z,68.69
2023-04-18T05:41:47.452Z,68.82
2023-04-18T05:44:18.473Z,68.76
2023-04-18T05:46:51.344Z,68.91
2023-04-18T05:49:20.506Z,68.83
2023-04-18T05:51:49.963Z,68.71
2023-04-18T05:54:18.539Z,68.92
2023-04-18T05:56:46.930Z,68.89
2023-04-18T05:59:16.119Z,69.02
2023-04-18T06:01:44.533Z,69.04
2023-04-18T06:04:15.353Z,69.13
2023-04-18T06:06:44.197Z,69.12
2023-04-18T06:09:12.635Z,69.20
2023-04-18T06:11:41.602Z,69.41
2023-04-18T06:14:10.048Z,69.38
2023-04-18T06:16:39.462Z,69.28
2023-04-18T06:19:07.955Z,69.44
2023-04-18T06:21:38.586Z,69.53
2023-04-18T06:24:07.627Z,69.53
2023-04-18T06:26:36.806Z,69.89
2023-04-18T06:29:05.254Z,70.20
2023-04-18T06:31:34.030Z,70.00
2023-04-18T06:34:02.492Z,70.24
2023-04-18T06:36:31.899Z,70.39
2023-04-18T06:39:01.670Z,70.56
2023-04-18T06:41:30.096Z,70.80
2023-04-18T06:44:04.234Z,70.99
2023-04-18T06:46:33.423Z,70.97
2023-04-18T06:49:02.743Z,71.22
2023-04-18T06:51:31.598Z,71.43
2023-04-18T06:54:02.987Z,71.21
2023-04-18T06:56:31.445Z,71.24
2023-04-18T06:59:00.216Z,71.42
2023-04-18T07:01:28.630Z,71.33
2023-04-18T07:03:57.082Z,71.50
2023-04-18T07:06:26.228Z,71.27
2023-04-18T07:09:00.018Z,71.25
2023-04-18T07:11:30.258Z,71.01
2023-04-18T07:13:58.703Z,70.84
2023-04-18T07:16:27.089Z,70.72
2023-04-18T07:18:56.326Z,70.82
2023-04-18T07:21:24.872Z,70.56
2023-04-18T07:23:53.687Z,70.14
2023-04-18T07:26:22.079Z,70.32
2023-04-18T07:28:52.273Z,69.88
2023-04-18T07:31:21.254Z,69.46
2023-04-18T07:33:49.675Z,69.24
2023-04-18T07:36:18.715Z,69.16
2023-04-18T07:38:47.364Z,68.66
2023-04-18T07:41:16.595Z,68.33
2023-04-18T07:43:46.026Z,68.45
2023-04-18T07:46:16.182Z,68.45
2023-04-18T07:48:44.649Z,68.60
2023-04-18T07:51:13.534Z,68.42
2023-04-18T07:53:43.560Z,68.27
2023-04-18T07:56:14.946Z,68.57
2023-04-18T07:58:43.283Z,68.17
2023-04-18T08:01:14.077Z,68.14
2023-04-18T08:03:44.042Z,68.46
2023-04-18T08:06:13.535Z,68.14
2023-04-18T08:08:42.055Z,67.80
2023-04-18T08:11:11.624Z,67.33
2023-04-18T08:13:40.459Z,67.18
2023-04-18T08:16:09.843Z,66.78
2023-04-18T08:18:39.188Z,66.58
2023-04-18T08:21:09.148Z,66.25
2023-04-18T08:23:37.962Z,66.03
2023-04-18T08:26:06.529Z,66.25
2023-04-18T08:28:35.379Z,65.65
2023-04-18T08:31:03.836Z,65.62
2023-04-18T08:33:33.840Z,65.61
2023-04-18T08:36:02.178Z,65.46
2023-04-18T08:38:32.991Z,65.09
2023-04-18T08:41:01.416Z,65.02
2023-04-18T08:43:31.329Z,64.72
2023-04-18T08:46:01.547Z,64.50
2023-04-18T08:48:30.600Z,63.84
2023-04-18T08:51:00.417Z,63.70
2023-04-18T08:53:29.256Z,62.68
2023-04-18T08:56:00.932Z,62.52
2023-04-18T08:58:32.281Z,62.56
2023-04-18T09:01:01.903Z,62.18
2023-04-18T09:03:39.678Z,61.94
2023-04-18T09:06:10.325Z,62.12
2023-04-18T09:08:39.134Z,62.22
2023-04-18T09:11:29.661Z,61.83
2023-04-18T09:13:59.865Z,61.52
2023-04-18T09:16:30.292Z,61.62
2023-04-18T09:19:14.413Z,61.46
2023-04-18T09:21:46.598Z,60.89
2023-04-18T09:24:21.129Z,60.88
2023-04-18T09:26:54.266Z,60.75
2023-04-18T09:29:23.904Z,60.79
2023-04-18T09:31:57.334Z,60.42
2023-04-18T09:34:26.877Z,60.49
2023-04-18T09:37:10.978Z,60.26
2023-04-18T09:39:40.688Z,60.07
2023-04-18T09:42:11.735Z,60.29
2023-04-18T09:45:00.310Z,59.54
2023-04-18T09:47:29.371Z,59.46
2023-04-18T09:49:58.847Z,59.51
2023-04-18T09:52:27.239Z,59.21
2023-04-18T09:55:00.934Z,58.99
2023-04-18T09:57:32.991Z,58.99
2023-04-18T10:00:10.481Z,58.61
2023-04-18T10:02:52.354Z,58.34
2023-04-18T10:05:25.095Z,58.50
2023-04-18T10:07:54.368Z,58.63
2023-04-18T10:10:23.277Z,58.66
2023-04-18T10:12:56.399Z,58.61
2023-04-18T10:15:28.481Z,59.07
2023-04-18T10:18:05.623Z,58.92
2023-04-18T10:20:36.164Z,59.07
2023-04-18T10:23:36.424Z,59.16
2023-04-18T10:26:06.161Z,58.95
2023-04-18T10:28:57.090Z,58.93
2023-04-18T10:31:27.032Z,58.97
2023-04-18T10:36:30.318Z,58.86
2023-04-18T10:39:03.540Z,58.79
2023-04-18T10:41:33.083Z,58.47
2023-04-18T10:44:18.665Z,58.21
2023-04-18T10:47:22.942Z,58.21
2023-04-18T10:49:58.755Z,58.33
2023-04-18T10:52:28.424Z,57.96
2023-04-18T10:55:09.465Z,57.64
2023-04-18T10:57:46.089Z,57.70
2023-04-18T11:00:22.092Z,57.17
2023-04-18T11:02:53.691Z,56.99
2023-04-18T11:05:25.853Z,56.64
2023-04-18T11:07:54.653Z,56.33
2023-04-18T11:10:26.778Z,56.03
2023-04-18T11:12:56.456Z,56.20
2023-04-18T11:15:29.145Z,56.31
2023-04-18T11:18:01.130Z,55.96
2023-04-18T11:20:30.058Z,56.25
2023-04-18T11:23:00.624Z,56.01
2023-04-18T11:25:30.505Z,55.96
2023-04-18T11:28:01.310Z,56.18
2023-04-18T11:30:38.496Z,56.40
2023-04-18T11:33:09.231Z,56.31
2023-04-18T11:35:38.632Z,56.11
2023-04-18T11:38:08.671Z,56.16
2023-04-18T11:40:38.679Z,56.30
2023-04-18T11:43:08.928Z,56.56
2023-04-18T11:45:39.281Z,56.84
2023-04-18T11:48:07.768Z,56.93
2023-04-18T11:50:38.165Z,57.18
2023-04-18T11:53:06.946Z,57.37
2023-04-18T11:55:35.458Z,57.53
2023-04-18T11:58:06.555Z,57.46
2023-04-18T12:00:37.104Z,57.51
2023-04-18T12:03:13.369Z,57.59
2023-04-18T12:05:43.299Z,57.89
2023-04-18T12:08:14.048Z,57.74
2023-04-18T12:10:48.038Z,57.92
2023-04-18T12:13:18.986Z,57.92
2023-04-18T12:15:47.845Z,58.07
2023-04-18T12:18:19.796Z,58.27
2023-04-18T12:20:52.165Z,58.32
2023-04-18T12:23:31.015Z,58.86
2023-04-18T12:26:02.576Z,58.68
2023-04-18T12:28:31.589Z,58.64
2023-04-18T12:31:01.156Z,58.76
2023-04-18T12:33:31.705Z,58.82
2023-04-18T12:36:01.988Z,58.99
2023-04-18T12:38:30.354Z,58.97
2023-04-18T12:40:59.168Z,59.22
2023-04-18T12:43:27.746Z,59.31
2023-04-18T12:45:56.564Z,59.21
2023-04-18T12:48:24.930Z,59.36
2023-04-18T12:50:54.934Z,59.39
2023-04-18T12:53:24.205Z,59.26
2023-04-18T12:55:52.991Z,59.68
2023-04-18T12:58:21.766Z,60.06
2023-04-18T13:00:50.191Z,59.92
2023-04-18T13:03:19.187Z,60.16
2023-04-18T13:05:47.831Z,59.80
2023-04-18T13:08:18.377Z,59.91
2023-04-18T13:10:47.632Z,60.09
2023-04-18T13:13:16.568Z,59.99
2023-04-18T13:15:45.513Z,59.93
2023-04-18T13:18:14.330Z,60.05
2023-04-18T13:20:44.419Z,60.07
2023-04-18T13:23:12.785Z,60.59
2023-04-18T13:25:43.337Z,60.52
2023-04-18T13:28:11.696Z,60.40
2023-04-18T13:30:40.466Z,60.45
2023-04-18T13:33:10.266Z,60.43
2023-04-18T13:35:39.950Z,60.36
2023-04-18T13:38:08.354Z,60.51
2023-04-18T13:40:39.243Z,60.76
2023-04-18T13:43:10.906Z,60.88
2023-04-18T13:45:40.098Z,60.65
2023-04-18T13:48:08.939Z,60.77
2023-04-18T13:50:37.307Z,60.74
2023-04-18T13:53:06.151Z,60.93
2023-04-18T13:55:37.280Z,61.15
2023-04-18T13:58:07.942Z,61.21
2023-04-18T14:00:39.621Z,60.83
2023-04-18T14:03:08.708Z,60.88
2023-04-18T14:05:37.605Z,60.85
2023-04-18T14:08:06.517Z,60.81
2023-04-18T14:10:36.795Z,60.66
2023-04-18T14:13:05.143Z,61.01
2023-04-18T14:15:34.527Z,60.90
2023-04-18T14:18:04.594Z,60.71
2023-04-18T14:20:35.121Z,60.89
2023-04-18T14:23:03.501Z,61.01
2023-04-18T14:25:33.151Z,60.74
2023-04-18T14:28:07.876Z,60.58
2023-04-18T14:30:37.093Z,60.92
2023-04-18T14:33:09.717Z,61.08
2023-04-18T14:35:38.460Z,61.02
2023-04-18T14:38:07.475Z,61.10
2023-04-18T14:40:36.409Z,60.82
2023-04-18T14:43:04.779Z,60.67
2023-04-18T14:45:34.816Z,60.85
2023-04-18T14:48:03.969Z,60.86
2023-04-18T14:50:33.673Z,60.99
2023-04-18T14:53:02.770Z,60.75
2023-04-18T14:55:31.284Z,60.42
2023-04-18T14:58:00.165Z,60.58
2023-04-18T15:00:28.644Z,60.42
2023-04-18T15:02:57.769Z,60.35
2023-04-18T15:05:26.496Z,60.51
2023-04-18T15:07:56.451Z,60.33
2023-04-18T15:10:25.020Z,60.35
2023-04-18T15:12:54.920Z,60.15
2023-04-18T15:15:25.164Z,59.85
2023-04-18T15:17:53.529Z,60.20
2023-04-18T15:20:24.006Z,60.15
2023-04-18T15:22:52.687Z,60.27
2023-04-18T15:25:24.408Z,59.96
2023-04-18T15:27:53.199Z,60.08
2023-04-18T15:30:22.379Z,60.34
2023-04-18T15:32:52.176Z,59.93
2023-04-18T15:35:21.117Z,60.25
2023-04-18T15:37:51.285Z,60.15
2023-04-18T15:40:19.860Z,60.22
2023-04-18T15:42:53.557Z,60.50
2023-04-18T15:45:22.594Z,60.43
2023-04-18T15:47:52.052Z,60.38
2023-04-18T15:50:20.701Z,60.68
2023-04-18T15:52:49.828Z,60.62
2023-04-18T15:55:18.189Z,60.42
2023-04-18T15:57:48.207Z,60.53
2023-04-18T16:00:19.768Z,60.90
2023-04-18T16:02:48.969Z,60.79
2023-04-18T16:05:17.442Z,60.59
2023-04-18T16:07:46.490Z,60.68
2023-04-18T16:10:15.323Z,60.56
2023-04-18T16:12:44.212Z,60.54
2023-04-18T16:15:13.663Z,61.04
2023-04-18T16:17:44.282Z,60.59
2023-04-18T16:20:13.510Z,60.84
2023-04-18T16:22:42.136Z,60.64
2023-04-18T16:27:57.401Z,60.86
2023-04-18T16:30:25.769Z,60.90
2023-04-18T16:32:56.086Z,60.81
2023-04-18T16:35:24.768Z,60.78
2023-04-18T16:37:53.682Z,61.09
2023-04-18T16:40:22.076Z,61.50
2023-04-18T16:42:52.723Z,61.47
2023-04-18T16:45:21.528Z,61.76
2023-04-18T16:47:49.925Z,61.96
2023-04-18T16:50:20.532Z,61.92
2023-04-18T16:52:48.949Z,61.66
2023-04-18T16:55:18.861Z,61.85
2023-04-18T16:57:47.201Z,61.75
2023-04-18T17:00:16.624Z,62.37
2023-04-18T17:02:45.247Z,62.76
2023-04-18T17:05:14.618Z,63.28
2023-04-18T17:07:45.840Z,64.01
2023-04-18T17:10:15.051Z,64.07
2023-04-18T17:12:43.505Z,64.50
2023-04-18T17:15:12.570Z,64.97
2023-04-18T17:17:41.372Z,64.98
2023-04-18T17:20:10.977Z,65.43
2023-04-18T17:22:40.787Z,65.90
2023-04-18T17:25:12.166Z,65.86
2023-04-18T17:27:41.440Z,66.09
2023-04-18T17:30:11.520Z,66.50
2023-04-18T17:32:42.996Z,66.57
2023-04-18T17:35:11.527Z,66.62
2023-04-18T17:37:39.912Z,66.74
2023-04-18T17:40:11.888Z,66.65
2023-04-18T17:42:42.276Z,67.06
2023-04-18T17:45:11.231Z,67.02
2023-04-18T17:47:40.806Z,66.96
2023-04-18T17:50:10.176Z,66.99
2023-04-18T17:52:39.533Z,66.83
2023-04-18T17:55:10.825Z,67.21
2023-04-18T17:57:39.249Z,66.99
2023-04-18T18:00:12.187Z,67.23
2023-04-18T18:02:43.691Z,67.24
2023-04-18T18:05:14.131Z,67.20
2023-04-18T18:07:47.417Z,67.40
2023-04-18T18:10:19.961Z,67.49
2023-04-18T18:12:49.138Z,67.87
2023-04-18T18:15:18.973Z,68.03
2023-04-18T18:17:49.396Z,68.04
2023-04-18T18:20:19.064Z,68.30
2023-04-18T18:22:48.575Z,67.90
2023-04-18T18:25:18.347Z,67.93
2023-04-18T18:27:48.583Z,68.03
2023-04-18T18:30:17.268Z,67.99
2023-04-18T18:32:46.579Z,68.15
2023-04-18T18:35:16.191Z,68.53
2023-04-18T18:37:44.889Z,68.54
2023-04-18T18:40:15.155Z,68.83
2023-04-18T18:42:45.021Z,68.87
2023-04-18T18:45:15.027Z,68.79
2023-04-18T18:47:43.453Z,68.93
2023-04-18T18:50:12.744Z,69.09
2023-04-18T18:52:43.025Z,68.91
2023-04-18T18:55:13.687Z,68.95
2023-04-18T18:57:42.034Z,69.37
2023-04-18T19:00:13.761Z,69.19
2023-04-18T19:02:42.850Z,69.27
2023-04-18T19:05:12.742Z,69.45
2023-04-18T19:07:43.352Z,69.45
2023-04-18T19:10:12.177Z,69.04
2023-04-18T19:12:41.261Z,69.34
2023-04-18T19:15:10.743Z,69.22
2023-04-18T19:17:42.101Z,68.97
2023-04-18T19:20:10.724Z,68.96
2023-04-18T19:22:40.084Z,68.77
2023-04-18T19:25:09.918Z,68.62
2023-04-18T19:27:39.971Z,68.35
2023-04-18T19:30:10.573Z,68.26
2023-04-18T19:32:40.843Z,68.09
2023-04-18T19:35:13.077Z,68.18
2023-04-18T19:38:01.698Z,68.11
2023-04-18T19:40:30.820Z,67.84
2023-04-18T19:42:59.221Z,67.82
2023-04-18T19:45:28.772Z,67.82
2023-04-18T19:47:58.513Z,67.44
2023-04-18T19:50:27.601Z,67.58
2023-04-18T19:52:58.871Z,67.36
2023-04-18T19:55:27.515Z,67.25
2023-04-18T19:57:57.473Z,67.20
2023-04-18T20:00:25.876Z,66.90
2023-04-18T20:02:54.391Z,67.16
2023-04-18T20:05:24.753Z,67.17
2023-04-18T20:07:54.655Z,67.04
2023-04-18T20:10:23.157Z,66.89
2023-04-18T20:12:51.533Z,66.77
2023-04-18T20:15:20.300Z,67.04
2023-04-18T20:17:48.688Z,67.07
2023-04-18T20:20:17.619Z,66.69
2023-04-18T20:22:47.763Z,66.73
2023-04-18T20:25:17.888Z,66.73
2023-04-18T20:27:46.244Z,66.92
2023-04-18T20:30:15.821Z,66.90
2023-04-18T20:32:44.314Z,66.83
2023-04-18T20:35:13.739Z,66.75
2023-04-18T20:37:42.146Z,66.82
2023-04-18T20:40:13.895Z,66.84
2023-04-18T20:42:42.240Z,66.74
2023-04-18T20:45:11.722Z,67.00
2023-04-18T20:47:41.242Z,66.85
2023-04-18T20:50:10.650Z,66.91
2023-04-18T20:52:43.101Z,66.73
2023-04-18T20:55:13.146Z,66.77
2023-04-18T20:57:43.187Z,66.85
2023-04-18T21:00:13.894Z,67.29
2023-04-18T21:02:43.385Z,67.27
2023-04-18T21:05:12.046Z,67.22
2023-04-18T21:07:40.433Z,67.31
2023-04-18T21:10:09.951Z,67.25
2023-04-18T21:12:39.818Z,67.20
2023-04-18T21:15:09.678Z,67.10
2023-04-18T21:17:38.063Z,67.10
2023-04-18T21:20:08.513Z,67.14
2023-04-18T21:22:36.937Z,67.51
2023-04-18T21:25:07.390Z,67.46
2023-04-18T21:27:35.860Z,67.36
2023-04-18T21:30:07.878Z,67.39
2023-04-18T21:32:36.402Z,67.40
2023-04-18T21:35:06.377Z,67.70
2023-04-18T21:37:34.995Z,67.41
2023-04-18T21:40:04.941Z,67.79
2023-04-18T21:42:35.484Z,67.69
2023-04-18T21:45:04.161Z,67.72
2023-04-18T21:47:35.088Z,67.84
2023-04-18T21:50:04.154Z,67.94
2023-04-18T21:52:33.337Z,68.04
2023-04-18T21:55:01.772Z,67.87
2023-04-18T21:57:30.834Z,67.72
2023-04-18T21:59:59.757Z,68.11
2023-04-18T22:02:28.789Z,67.79
2023-04-18T22:04:59.548Z,67.96
2023-04-18T22:07:29.503Z,68.07
2023-04-18T22:10:00.329Z,68.04
2023-04-18T22:12:28.659Z,68.15
2023-04-18T22:14:58.113Z,68.15
2023-04-18T22:17:27.051Z,68.49
2023-04-18T22:19:56.447Z,68.47
2023-04-18T22:22:26.135Z,68.78
2023-04-18T22:24:55.294Z,69.05
2023-04-18T22:27:23.655Z,69.23
2023-04-18T22:29:52.554Z,69.00
2023-04-18T22:32:21.506Z,69.50
2023-04-18T22:34:49.870Z,69.70
2023-04-18T22:37:22.420Z,69.76
2023-04-18T22:39:59.371Z,69.82
2023-04-18T22:43:00.940Z,69.83
2023-04-18T22:45:29.305Z,70.21
2023-04-18T22:47:58.394Z,69.99
2023-04-18T22:50:27.372Z,69.99
2023-04-18T22:52:57.606Z,70.19
2023-04-18T22:55:27.371Z,70.30
2023-04-18T22:57:57.130Z,70.69
2023-04-18T23:00:25.442Z,70.69
2023-04-18T23:02:54.814Z,70.61
2023-04-18T23:05:23.828Z,70.76
2023-04-18T23:07:52.171Z,70.81
2023-04-18T23:10:22.195Z,70.74
2023-04-18T23:12:52.464Z,71.00
2023-04-18T23:15:22.856Z,71.05
2023-04-18T23:17:53.425Z,70.88
2023-04-18T23:20:24.114Z,70.65
2023-04-18T23:22:52.767Z,70.90
2023-04-18T23:25:22.687Z,70.93
2023-04-18T23:27:52.443Z,70.97
2023-04-18T23:30:22.525Z,70.80
2023-04-18T23:32:51.013Z,71.01
2023-04-18T23:35:20.179Z,70.92
2023-04-18T23:37:49.156Z,70.68
2023-04-18T23:40:17.897Z,70.96
2023-04-18T23:42:47.478Z,70.71
2023-04-18T23:45:17.345Z,70.65
2023-04-18T23:47:46.165Z,70.86
2023-04-18T23:50:14.541Z,70.54
2023-04-18T23:52:43.814Z,70.56
2023-04-18T23:55:12.278Z,70.75
2023-04-18T23:57:41.845Z,70.67
